sensor_id;sensor_type;location;lat;lon;timestamp;temperature;humidity
19050;DHT22;9657;45.940;12.840;2023-03-05T00:00:15;13.20;65.10
19050;DHT22;9657;45.940;12.840;2023-03-05T00:02:42;13.20;65.20
19050;DHT22;9657;45.940;12.840;2023-03-05T00:05:10;13.20;65.10
19050;DHT22;9657;45.940;12.840;2023-03-05T00:07:37;13.20;65.90
19050;DHT22;9657;45.940;12.840;2023-03-05T00:10:05;13.20;65.10
19050;DHT22;9657;45.940;12.840;2023-03-05T00:12:32;13.20;65.10
19050;DHT22;9657;45.940;12.840;2023-03-05T00:15:00;13.20;65.10
19050;DHT22;9657;45.940;12.840;2023-03-05T00:17:28;13.20;65.20
19050;DHT22;9657;45.940;12.840;2023-03-05T00:19:57;13.20;65.30
19050;DHT22;9657;45.940;12.840;2023-03-05T00:22:24;13.20;65.40
19050;DHT22;9657;45.940;12.840;2023-03-05T00:24:51;13.20;65.40
19050;DHT22;9657;45.940;12.840;2023-03-05T00:27:18;13.20;65.40
19050;DHT22;9657;45.940;12.840;2023-03-05T00:29:45;13.20;65.30
19050;DHT22;9657;45.940;12.840;2023-03-05T00:32:12;13.20;65.30
19050;DHT22;9657;45.940;12.840;2023-03-05T00:34:40;13.20;66.00
19050;DHT22;9657;45.940;12.840;2023-03-05T00:37:07;13.20;65.30
19050;DHT22;9657;45.940;12.840;2023-03-05T00:39:34;13.20;65.20
19050;DHT22;9657;45.940;12.840;2023-03-05T00:42:01;13.20;65.40
19050;DHT22;9657;45.940;12.840;2023-03-05T00:44:28;13.20;66.10
19050;DHT22;9657;45.940;12.840;2023-03-05T00:46:55;13.20;66.90
19050;DHT22;9657;45.940;12.840;2023-03-05T00:49:22;13.20;67.40
19050;DHT22;9657;45.940;12.840;2023-03-05T00:51:51;13.20;67.70
19050;DHT22;9657;45.940;12.840;2023-03-05T00:54:18;13.20;68.10
19050;DHT22;9657;45.940;12.840;2023-03-05T00:56:45;13.20;68.30
19050;DHT22;9657;45.940;12.840;2023-03-05T00:59:13;13.20;68.40
19050;DHT22;9657;45.940;12.840;2023-03-05T01:01:40;13.20;68.40
19050;DHT22;9657;45.940;12.840;2023-03-05T01:04:08;13.20;69.10
19050;DHT22;9657;45.940;12.840;2023-03-05T01:06:35;13.20;68.40
19050;DHT22;9657;45.940;12.840;2023-03-05T01:09:05;13.20;68.30
19050;DHT22;9657;45.940;12.840;2023-03-05T01:11:32;13.20;68.30
19050;DHT22;9657;45.940;12.840;2023-03-05T01:13:59;13.20;68.20
19050;DHT22;9657;45.940;12.840;2023-03-05T01:16:26;13.20;68.30
19050;DHT22;9657;45.940;12.840;2023-03-05T01:18:53;13.20;68.10
19050;DHT22;9657;45.940;12.840;2023-03-05T01:21:20;13.20;68.00
19050;DHT22;9657;45.940;12.840;2023-03-05T01:23:47;13.20;68.00
19050;DHT22;9657;45.940;12.840;2023-03-05T01:26:16;13.20;68.00
19050;DHT22;9657;45.940;12.840;2023-03-05T01:28:43;13.20;67.80
19050;DHT22;9657;45.940;12.840;2023-03-05T01:31:10;13.20;67.90
19050;DHT22;9657;45.940;12.840;2023-03-05T01:33:37;13.20;67.80
19050;DHT22;9657;45.940;12.840;2023-03-05T01:36:08;13.20;67.80
19050;DHT22;9657;45.940;12.840;2023-03-05T01:38:38;13.20;67.80
19050;DHT22;9657;45.940;12.840;2023-03-05T01:41:05;13.20;67.60
19050;DHT22;9657;45.940;12.840;2023-03-05T01:43:33;13.20;67.60
19050;DHT22;9657;45.940;12.840;2023-03-05T01:46:33;13.20;67.50
19050;DHT22;9657;45.940;12.840;2023-03-05T01:49:14;13.20;67.50
19050;DHT22;9657;45.940;12.840;2023-03-05T01:51:49;13.20;67.50
19050;DHT22;9657;45.940;12.840;2023-03-05T01:54:20;13.20;67.40
19050;DHT22;9657;45.940;12.840;2023-03-05T01:56:49;13.20;67.40
19050;DHT22;9657;45.940;12.840;2023-03-05T01:59:21;13.20;67.40
19050;DHT22;9657;45.940;12.840;2023-03-05T02:04:29;13.20;67.30
19050;DHT22;9657;45.940;12.840;2023-03-05T02:06:56;13.20;67.20
19050;DHT22;9657;45.940;12.840;2023-03-05T02:09:26;13.20;67.20
19050;DHT22;9657;45.940;12.840;2023-03-05T02:11:54;13.20;67.10
19050;DHT22;9657;45.940;12.840;2023-03-05T02:14:22;13.20;67.10
19050;DHT22;9657;45.940;12.840;2023-03-05T02:16:50;13.10;66.90
19050;DHT22;9657;45.940;12.840;2023-03-05T02:19:17;13.20;67.00
19050;DHT22;9657;45.940;12.840;2023-03-05T02:21:47;13.10;66.80
19050;DHT22;9657;45.940;12.840;2023-03-05T02:24:16;13.10;66.80
19050;DHT22;9657;45.940;12.840;2023-03-05T02:26:45;13.10;66.70
19050;DHT22;9657;45.940;12.840;2023-03-05T02:29:16;13.10;66.70
19050;DHT22;9657;45.940;12.840;2023-03-05T02:31:44;13.10;66.60
19050;DHT22;9657;45.940;12.840;2023-03-05T02:34:12;13.10;66.70
19050;DHT22;9657;45.940;12.840;2023-03-05T02:36:39;13.10;66.70
19050;DHT22;9657;45.940;12.840;2023-03-05T02:39:07;13.10;66.60
19050;DHT22;9657;45.940;12.840;2023-03-05T02:41:35;13.10;66.60
19050;DHT22;9657;45.940;12.840;2023-03-05T02:44:02;13.10;66.60
19050;DHT22;9657;45.940;12.840;2023-03-05T02:46:29;13.10;66.50
19050;DHT22;9657;45.940;12.840;2023-03-05T02:48:56;13.10;66.50
19050;DHT22;9657;45.940;12.840;2023-03-05T02:51:23;13.10;66.40
19050;DHT22;9657;45.940;12.840;2023-03-05T02:53:50;13.20;66.50
19050;DHT22;9657;45.940;12.840;2023-03-05T02:56:19;13.10;66.30
19050;DHT22;9657;45.940;12.840;2023-03-05T02:58:46;13.10;66.30
19050;DHT22;9657;45.940;12.840;2023-03-05T03:01:13;13.10;66.30
19050;DHT22;9657;45.940;12.840;2023-03-05T03:03:40;13.10;66.30
19050;DHT22;9657;45.940;12.840;2023-03-05T03:06:07;13.10;66.20
19050;DHT22;9657;45.940;12.840;2023-03-05T03:08:34;13.10;66.20
19050;DHT22;9657;45.940;12.840;2023-03-05T03:11:05;13.10;66.20
19050;DHT22;9657;45.940;12.840;2023-03-05T03:13:34;13.10;66.20
19050;DHT22;9657;45.940;12.840;2023-03-05T03:16:03;13.10;66.20
19050;DHT22;9657;45.940;12.840;2023-03-05T03:18:30;13.10;66.10
19050;DHT22;9657;45.940;12.840;2023-03-05T03:20:57;13.10;66.10
19050;DHT22;9657;45.940;12.840;2023-03-05T03:23:25;13.10;66.00
19050;DHT22;9657;45.940;12.840;2023-03-05T03:25:52;13.10;66.00
19050;DHT22;9657;45.940;12.840;2023-03-05T03:28:19;13.10;66.00
19050;DHT22;9657;45.940;12.840;2023-03-05T03:30:47;13.10;65.90
19050;DHT22;9657;45.940;12.840;2023-03-05T03:33:15;13.10;65.80
19050;DHT22;9657;45.940;12.840;2023-03-05T03:35:43;13.10;65.90
19050;DHT22;9657;45.940;12.840;2023-03-05T03:38:10;13.10;65.80
19050;DHT22;9657;45.940;12.840;2023-03-05T03:40:38;13.10;65.80
19050;DHT22;9657;45.940;12.840;2023-03-05T03:43:05;13.10;65.80
19050;DHT22;9657;45.940;12.840;2023-03-05T03:45:32;13.10;65.80
19050;DHT22;9657;45.940;12.840;2023-03-05T03:48:01;13.10;65.70
19050;DHT22;9657;45.940;12.840;2023-03-05T03:50:28;13.10;65.70
19050;DHT22;9657;45.940;12.840;2023-03-05T03:52:55;13.10;65.70
19050;DHT22;9657;45.940;12.840;2023-03-05T03:55:22;13.10;65.70
19050;DHT22;9657;45.940;12.840;2023-03-05T03:57:49;13.10;65.60
19050;DHT22;9657;45.940;12.840;2023-03-05T04:00:17;13.10;65.60
19050;DHT22;9657;45.940;12.840;2023-03-05T04:02:44;13.10;65.60
19050;DHT22;9657;45.940;12.840;2023-03-05T04:05:13;13.10;65.60
19050;DHT22;9657;45.940;12.840;2023-03-05T04:07:42;13.10;65.50
19050;DHT22;9657;45.940;12.840;2023-03-05T04:10:10;13.00;65.50
19050;DHT22;9657;45.940;12.840;2023-03-05T04:12:38;13.00;65.50
19050;DHT22;9657;45.940;12.840;2023-03-05T04:15:08;13.00;65.40
19050;DHT22;9657;45.940;12.840;2023-03-05T04:17:35;13.00;65.30
19050;DHT22;9657;45.940;12.840;2023-03-05T04:20:03;13.00;65.30
19050;DHT22;9657;45.940;12.840;2023-03-05T04:22:32;13.00;65.30
19050;DHT22;9657;45.940;12.840;2023-03-05T04:24:59;13.00;65.30
19050;DHT22;9657;45.940;12.840;2023-03-05T04:27:28;13.10;65.30
19050;DHT22;9657;45.940;12.840;2023-03-05T04:29:55;13.00;65.20
19050;DHT22;9657;45.940;12.840;2023-03-05T04:32:22;13.00;65.20
19050;DHT22;9657;45.940;12.840;2023-03-05T04:34:53;13.00;65.20
19050;DHT22;9657;45.940;12.840;2023-03-05T04:37:20;13.00;65.20
19050;DHT22;9657;45.940;12.840;2023-03-05T04:39:48;13.00;65.10
19050;DHT22;9657;45.940;12.840;2023-03-05T04:42:15;13.00;65.10
19050;DHT22;9657;45.940;12.840;2023-03-05T04:44:43;13.00;65.10
19050;DHT22;9657;45.940;12.840;2023-03-05T04:47:10;13.00;65.10
19050;DHT22;9657;45.940;12.840;2023-03-05T04:49:37;13.00;65.00
19050;DHT22;9657;45.940;12.840;2023-03-05T04:52:04;13.00;65.00
19050;DHT22;9657;45.940;12.840;2023-03-05T04:54:31;13.00;65.00
19050;DHT22;9657;45.940;12.840;2023-03-05T04:57:00;13.00;65.00
19050;DHT22;9657;45.940;12.840;2023-03-05T04:59:27;13.00;65.00
19050;DHT22;9657;45.940;12.840;2023-03-05T05:01:54;13.00;64.90
19050;DHT22;9657;45.940;12.840;2023-03-05T05:04:22;13.00;64.90
19050;DHT22;9657;45.940;12.840;2023-03-05T05:06:49;13.00;64.90
19050;DHT22;9657;45.940;12.840;2023-03-05T05:09:16;13.00;64.90
19050;DHT22;9657;45.940;12.840;2023-03-05T05:11:43;13.00;64.80
19050;DHT22;9657;45.940;12.840;2023-03-05T05:14:12;13.00;64.80
19050;DHT22;9657;45.940;12.840;2023-03-05T05:16:39;13.00;64.80
19050;DHT22;9657;45.940;12.840;2023-03-05T05:19:06;13.00;64.80
19050;DHT22;9657;45.940;12.840;2023-03-05T05:21:33;13.00;64.70
19050;DHT22;9657;45.940;12.840;2023-03-05T05:24:00;13.00;64.70
19050;DHT22;9657;45.940;12.840;2023-03-05T05:26:27;13.00;64.70
19050;DHT22;9657;45.940;12.840;2023-03-05T05:28:54;13.00;64.70
19050;DHT22;9657;45.940;12.840;2023-03-05T05:31:23;13.00;64.70
19050;DHT22;9657;45.940;12.840;2023-03-05T05:33:50;13.00;64.70
19050;DHT22;9657;45.940;12.840;2023-03-05T05:36:17;13.00;64.70
19050;DHT22;9657;45.940;12.840;2023-03-05T05:38:47;13.00;64.60
19050;DHT22;9657;45.940;12.840;2023-03-05T05:41:16;13.00;64.60
19050;DHT22;9657;45.940;12.840;2023-03-05T05:43:44;13.00;64.60
19050;DHT22;9657;45.940;12.840;2023-03-05T05:46:13;13.00;64.60
19050;DHT22;9657;45.940;12.840;2023-03-05T05:48:42;12.90;64.50
19050;DHT22;9657;45.940;12.840;2023-03-05T05:51:11;12.90;64.50
19050;DHT22;9657;45.940;12.840;2023-03-05T05:53:40;13.00;64.50
19050;DHT22;9657;45.940;12.840;2023-03-05T05:56:08;12.90;64.40
19050;DHT22;9657;45.940;12.840;2023-03-05T05:58:37;13.00;64.50
19050;DHT22;9657;45.940;12.840;2023-03-05T06:01:12;12.90;64.50
19050;DHT22;9657;45.940;12.840;2023-03-05T06:03:39;12.90;64.50
19050;DHT22;9657;45.940;12.840;2023-03-05T06:06:09;12.90;64.50
19050;DHT22;9657;45.940;12.840;2023-03-05T06:08:37;12.90;64.40
19050;DHT22;9657;45.940;12.840;2023-03-05T06:11:04;12.90;64.40
19050;DHT22;9657;45.940;12.840;2023-03-05T06:13:31;12.90;64.40
19050;DHT22;9657;45.940;12.840;2023-03-05T06:16:01;12.90;64.40
19050;DHT22;9657;45.940;12.840;2023-03-05T06:18:28;12.90;64.40
19050;DHT22;9657;45.940;12.840;2023-03-05T06:20:56;12.90;64.40
19050;DHT22;9657;45.940;12.840;2023-03-05T06:23:25;12.90;64.30
19050;DHT22;9657;45.940;12.840;2023-03-05T06:25:52;12.90;64.30
19050;DHT22;9657;45.940;12.840;2023-03-05T06:28:20;12.90;64.30
19050;DHT22;9657;45.940;12.840;2023-03-05T06:30:47;12.90;64.30
19050;DHT22;9657;45.940;12.840;2023-03-05T06:33:14;12.90;64.30
19050;DHT22;9657;45.940;12.840;2023-03-05T06:35:42;12.90;64.40
19050;DHT22;9657;45.940;12.840;2023-03-05T06:38:09;12.90;64.30
19050;DHT22;9657;45.940;12.840;2023-03-05T06:40:39;12.90;64.30
19050;DHT22;9657;45.940;12.840;2023-03-05T06:43:06;12.90;64.30
19050;DHT22;9657;45.940;12.840;2023-03-05T06:45:33;12.90;64.30
19050;DHT22;9657;45.940;12.840;2023-03-05T06:48:00;12.90;64.30
19050;DHT22;9657;45.940;12.840;2023-03-05T06:50:27;12.90;64.30
19050;DHT22;9657;45.940;12.840;2023-03-05T06:52:54;12.90;64.30
19050;DHT22;9657;45.940;12.840;2023-03-05T06:55:21;12.90;64.30
19050;DHT22;9657;45.940;12.840;2023-03-05T06:57:49;12.90;64.40
19050;DHT22;9657;45.940;12.840;2023-03-05T07:00:17;12.90;64.40
19050;DHT22;9657;45.940;12.840;2023-03-05T07:02:44;12.90;64.30
19050;DHT22;9657;45.940;12.840;2023-03-05T07:05:11;12.90;64.30
19050;DHT22;9657;45.940;12.840;2023-03-05T07:07:38;12.90;64.20
19050;DHT22;9657;45.940;12.840;2023-03-05T07:10:06;12.90;64.20
19050;DHT22;9657;45.940;12.840;2023-03-05T07:12:34;12.90;64.10
19050;DHT22;9657;45.940;12.840;2023-03-05T07:15:05;12.90;63.90
19050;DHT22;9657;45.940;12.840;2023-03-05T07:17:32;12.90;63.70
19050;DHT22;9657;45.940;12.840;2023-03-05T07:20:00;12.90;63.70
19050;DHT22;9657;45.940;12.840;2023-03-05T07:22:27;12.90;63.50
19050;DHT22;9657;45.940;12.840;2023-03-05T07:24:54;12.90;63.60
19050;DHT22;9657;45.940;12.840;2023-03-05T07:27:21;12.90;63.60
19050;DHT22;9657;45.940;12.840;2023-03-05T07:29:50;12.80;63.60
19050;DHT22;9657;45.940;12.840;2023-03-05T07:32:18;12.90;63.60
19050;DHT22;9657;45.940;12.840;2023-03-05T07:34:45;12.90;63.60
19050;DHT22;9657;45.940;12.840;2023-03-05T07:37:12;12.80;63.50
19050;DHT22;9657;45.940;12.840;2023-03-05T07:39:39;12.90;63.60
19050;DHT22;9657;45.940;12.840;2023-03-05T07:42:06;12.90;63.60
19050;DHT22;9657;45.940;12.840;2023-03-05T07:44:33;12.90;63.60
19050;DHT22;9657;45.940;12.840;2023-03-05T07:47:00;12.80;63.60
19050;DHT22;9657;45.940;12.840;2023-03-05T07:49:29;12.80;63.60
19050;DHT22;9657;45.940;12.840;2023-03-05T07:51:56;12.80;63.70
19050;DHT22;9657;45.940;12.840;2023-03-05T07:54:23;12.80;63.70
19050;DHT22;9657;45.940;12.840;2023-03-05T07:56:50;12.90;63.80
19050;DHT22;9657;45.940;12.840;2023-03-05T07:59:17;12.90;63.90
19050;DHT22;9657;45.940;12.840;2023-03-05T08:01:44;12.80;63.90
19050;DHT22;9657;45.940;12.840;2023-03-05T08:04:11;12.80;64.00
19050;DHT22;9657;45.940;12.840;2023-03-05T08:06:40;12.80;64.00
19050;DHT22;9657;45.940;12.840;2023-03-05T08:09:08;12.90;64.10
19050;DHT22;9657;45.940;12.840;2023-03-05T08:11:35;12.80;64.20
19050;DHT22;9657;45.940;12.840;2023-03-05T08:14:02;12.90;64.30
19050;DHT22;9657;45.940;12.840;2023-03-05T08:16:29;12.90;64.50
19050;DHT22;9657;45.940;12.840;2023-03-05T08:18:57;12.90;64.50
19050;DHT22;9657;45.940;12.840;2023-03-05T08:21:26;12.90;64.60
19050;DHT22;9657;45.940;12.840;2023-03-05T08:23:55;12.90;64.60
19050;DHT22;9657;45.940;12.840;2023-03-05T08:26:24;12.90;64.60
19050;DHT22;9657;45.940;12.840;2023-03-05T08:28:52;12.90;64.60
19050;DHT22;9657;45.940;12.840;2023-03-05T08:31:20;12.90;64.70
19050;DHT22;9657;45.940;12.840;2023-03-05T08:33:48;12.90;64.70
19050;DHT22;9657;45.940;12.840;2023-03-05T08:36:15;12.90;64.70
19050;DHT22;9657;45.940;12.840;2023-03-05T08:38:42;12.90;64.70
19050;DHT22;9657;45.940;12.840;2023-03-05T08:41:12;12.90;64.70
19050;DHT22;9657;45.940;12.840;2023-03-05T08:43:39;12.90;64.80
19050;DHT22;9657;45.940;12.840;2023-03-05T08:46:07;12.90;64.80
19050;DHT22;9657;45.940;12.840;2023-03-05T08:48:35;12.90;64.80
19050;DHT22;9657;45.940;12.840;2023-03-05T08:51:07;12.90;64.80
19050;DHT22;9657;45.940;12.840;2023-03-05T08:53:34;12.90;64.80
19050;DHT22;9657;45.940;12.840;2023-03-05T08:56:02;12.90;64.80
19050;DHT22;9657;45.940;12.840;2023-03-05T08:58:31;12.90;64.90
19050;DHT22;9657;45.940;12.840;2023-03-05T09:00:58;12.90;64.90
19050;DHT22;9657;45.940;12.840;2023-03-05T09:03:25;12.90;64.90
19050;DHT22;9657;45.940;12.840;2023-03-05T09:05:52;12.90;65.00
19050;DHT22;9657;45.940;12.840;2023-03-05T09:08:20;12.90;65.00
19050;DHT22;9657;45.940;12.840;2023-03-05T09:10:47;12.90;65.00
19050;DHT22;9657;45.940;12.840;2023-03-05T09:13:14;12.90;65.00
19050;DHT22;9657;45.940;12.840;2023-03-05T09:15:42;12.90;65.00
19050;DHT22;9657;45.940;12.840;2023-03-05T09:18:09;12.90;65.00
19050;DHT22;9657;45.940;12.840;2023-03-05T09:20:36;12.90;65.00
19050;DHT22;9657;45.940;12.840;2023-03-05T09:23:04;13.00;65.20
19050;DHT22;9657;45.940;12.840;2023-03-05T09:25:31;12.90;65.10
19050;DHT22;9657;45.940;12.840;2023-03-05T09:27:58;12.90;65.10
19050;DHT22;9657;45.940;12.840;2023-03-05T09:30:25;13.00;65.20
19050;DHT22;9657;45.940;12.840;2023-03-05T09:32:53;13.00;65.20
19050;DHT22;9657;45.940;12.840;2023-03-05T09:35:20;12.90;65.10
19050;DHT22;9657;45.940;12.840;2023-03-05T09:37:47;13.00;65.20
19050;DHT22;9657;45.940;12.840;2023-03-05T09:40:16;13.00;65.30
19050;DHT22;9657;45.940;12.840;2023-03-05T09:42:53;13.00;65.20
19050;DHT22;9657;45.940;12.840;2023-03-05T09:45:25;13.00;65.30
19050;DHT22;9657;45.940;12.840;2023-03-05T09:48:03;13.00;65.20
19050;DHT22;9657;45.940;12.840;2023-03-05T09:50:36;13.00;65.30
19050;DHT22;9657;45.940;12.840;2023-03-05T09:53:19;13.00;65.20
19050;DHT22;9657;45.940;12.840;2023-03-05T09:55:50;13.00;65.30
19050;DHT22;9657;45.940;12.840;2023-03-05T09:58:21;13.00;65.30
19050;DHT22;9657;45.940;12.840;2023-03-05T10:00:55;13.00;65.30
19050;DHT22;9657;45.940;12.840;2023-03-05T10:03:28;13.00;65.50
19050;DHT22;9657;45.940;12.840;2023-03-05T10:06:03;13.00;65.50
19050;DHT22;9657;45.940;12.840;2023-03-05T10:08:43;13.00;65.60
19050;DHT22;9657;45.940;12.840;2023-03-05T10:11:23;13.00;65.60
19050;DHT22;9657;45.940;12.840;2023-03-05T10:13:52;13.00;65.60
19050;DHT22;9657;45.940;12.840;2023-03-05T10:19:46;13.00;65.70
19050;DHT22;9657;45.940;12.840;2023-03-05T10:22:20;13.00;65.70
19050;DHT22;9657;45.940;12.840;2023-03-05T10:25:08;13.00;65.70
19050;DHT22;9657;45.940;12.840;2023-03-05T10:27:46;13.10;65.70
19050;DHT22;9657;45.940;12.840;2023-03-05T10:30:26;13.10;65.70
19050;DHT22;9657;45.940;12.840;2023-03-05T10:32:57;13.10;65.80
19050;DHT22;9657;45.940;12.840;2023-03-05T10:35:45;13.10;65.80
19050;DHT22;9657;45.940;12.840;2023-03-05T10:38:33;13.10;65.80
19050;DHT22;9657;45.940;12.840;2023-03-05T10:41:10;13.10;65.70
19050;DHT22;9657;45.940;12.840;2023-03-05T10:43:49;13.10;66.00
19050;DHT22;9657;45.940;12.840;2023-03-05T10:46:21;13.10;66.00
19050;DHT22;9657;45.940;12.840;2023-03-05T10:48:54;13.10;65.90
19050;DHT22;9657;45.940;12.840;2023-03-05T10:51:32;13.10;65.70
19050;DHT22;9657;45.940;12.840;2023-03-05T10:54:03;13.10;65.30
19050;DHT22;9657;45.940;12.840;2023-03-05T10:56:36;13.10;65.10
19050;DHT22;9657;45.940;12.840;2023-03-05T10:59:03;13.10;65.00
19050;DHT22;9657;45.940;12.840;2023-03-05T11:01:30;13.10;64.70
19050;DHT22;9657;45.940;12.840;2023-03-05T11:03:59;13.10;65.50
19050;DHT22;9657;45.940;12.840;2023-03-05T11:06:33;13.10;64.70
19050;DHT22;9657;45.940;12.840;2023-03-05T11:09:19;13.10;64.20
19050;DHT22;9657;45.940;12.840;2023-03-05T11:12:12;13.10;63.80
19050;DHT22;9657;45.940;12.840;2023-03-05T11:14:43;13.10;63.90
19050;DHT22;9657;45.940;12.840;2023-03-05T11:17:29;13.10;64.20
19050;DHT22;9657;45.940;12.840;2023-03-05T11:19:57;13.20;64.10
19050;DHT22;9657;45.940;12.840;2023-03-05T11:23:01;13.20;63.80
19050;DHT22;9657;45.940;12.840;2023-03-05T11:25:29;13.20;63.80
19050;DHT22;9657;45.940;12.840;2023-03-05T11:27:58;13.20;63.80
19050;DHT22;9657;45.940;12.840;2023-03-05T11:30:28;13.20;63.80
19050;DHT22;9657;45.940;12.840;2023-03-05T11:33:12;13.20;63.10
19050;DHT22;9657;45.940;12.840;2023-03-05T11:35:42;13.20;62.60
19050;DHT22;9657;45.940;12.840;2023-03-05T11:38:18;13.20;62.20
19050;DHT22;9657;45.940;12.840;2023-03-05T11:40:46;13.20;61.90
19050;DHT22;9657;45.940;12.840;2023-03-05T11:43:15;13.20;62.00
19050;DHT22;9657;45.940;12.840;2023-03-05T11:45:43;13.20;62.00
19050;DHT22;9657;45.940;12.840;2023-03-05T11:48:17;13.20;61.70
19050;DHT22;9657;45.940;12.840;2023-03-05T11:50:48;13.20;61.90
19050;DHT22;9657;45.940;12.840;2023-03-05T11:53:22;13.20;62.30
19050;DHT22;9657;45.940;12.840;2023-03-05T11:55:53;13.20;61.80
19050;DHT22;9657;45.940;12.840;2023-03-05T11:58:31;13.20;61.90
19050;DHT22;9657;45.940;12.840;2023-03-05T12:01:00;13.20;62.10
19050;DHT22;9657;45.940;12.840;2023-03-05T12:03:31;13.20;62.10
19050;DHT22;9657;45.940;12.840;2023-03-05T12:06:04;13.20;62.20
19050;DHT22;9657;45.940;12.840;2023-03-05T12:08:39;13.20;62.20
19050;DHT22;9657;45.940;12.840;2023-03-05T12:11:13;13.20;62.10
19050;DHT22;9657;45.940;12.840;2023-03-05T12:13:43;13.20;62.00
19050;DHT22;9657;45.940;12.840;2023-03-05T12:16:18;13.20;61.90
19050;DHT22;9657;45.940;12.840;2023-03-05T12:18:57;13.20;62.10
19050;DHT22;9657;45.940;12.840;2023-03-05T12:21:32;13.20;62.00
19050;DHT22;9657;45.940;12.840;2023-03-05T12:24:32;13.20;62.10
19050;DHT22;9657;45.940;12.840;2023-03-05T12:27:05;13.20;62.00
19050;DHT22;9657;45.940;12.840;2023-03-05T12:29:47;13.20;62.30
19050;DHT22;9657;45.940;12.840;2023-03-05T12:35:27;13.20;62.60
19050;DHT22;9657;45.940;12.840;2023-03-05T12:38:17;13.30;63.30
19050;DHT22;9657;45.940;12.840;2023-03-05T12:40:46;13.30;63.80
19050;DHT22;9657;45.940;12.840;2023-03-05T12:43:29;13.30;64.00
19050;DHT22;9657;45.940;12.840;2023-03-05T12:46:21;13.30;63.80
19050;DHT22;9657;45.940;12.840;2023-03-05T12:48:49;13.30;63.30
19050;DHT22;9657;45.940;12.840;2023-03-05T12:51:30;13.30;63.30
19050;DHT22;9657;45.940;12.840;2023-03-05T12:54:30;13.30;63.50
19050;DHT22;9657;45.940;12.840;2023-03-05T12:57:00;13.30;63.80
19050;DHT22;9657;45.940;12.840;2023-03-05T12:59:35;13.30;64.10
19050;DHT22;9657;45.940;12.840;2023-03-05T13:02:15;13.30;64.10
19050;DHT22;9657;45.940;12.840;2023-03-05T13:04:45;13.30;64.00
19050;DHT22;9657;45.940;12.840;2023-03-05T13:07:14;13.30;64.10
19050;DHT22;9657;45.940;12.840;2023-03-05T13:09:50;13.30;64.00
19050;DHT22;9657;45.940;12.840;2023-03-05T13:12:20;13.30;64.00
19050;DHT22;9657;45.940;12.840;2023-03-05T13:14:52;13.30;64.00
19050;DHT22;9657;45.940;12.840;2023-03-05T13:17:37;13.30;64.00
19050;DHT22;9657;45.940;12.840;2023-03-05T13:20:23;13.40;64.10
19050;DHT22;9657;45.940;12.840;2023-03-05T13:25:36;13.30;64.00
19050;DHT22;9657;45.940;12.840;2023-03-05T13:28:10;13.40;64.30
19050;DHT22;9657;45.940;12.840;2023-03-05T13:30:38;13.40;64.20
19050;DHT22;9657;45.940;12.840;2023-03-05T13:33:12;13.40;64.30
19050;DHT22;9657;45.940;12.840;2023-03-05T13:35:44;13.40;64.30
19050;DHT22;9657;45.940;12.840;2023-03-05T13:38:21;13.40;64.40
19050;DHT22;9657;45.940;12.840;2023-03-05T13:41:04;13.40;64.40
19050;DHT22;9657;45.940;12.840;2023-03-05T13:43:41;13.40;64.50
19050;DHT22;9657;45.940;12.840;2023-03-05T13:46:09;13.40;64.50
19050;DHT22;9657;45.940;12.840;2023-03-05T13:48:35;13.40;64.50
19050;DHT22;9657;45.940;12.840;2023-03-05T13:51:03;13.40;64.50
19050;DHT22;9657;45.940;12.840;2023-03-05T13:53:32;13.40;64.50
19050;DHT22;9657;45.940;12.840;2023-03-05T13:56:01;13.40;64.60
19050;DHT22;9657;45.940;12.840;2023-03-05T13:58:50;13.40;65.30
19050;DHT22;9657;45.940;12.840;2023-03-05T14:01:26;13.50;64.60
19050;DHT22;9657;45.940;12.840;2023-03-05T14:03:55;13.50;64.60
19050;DHT22;9657;45.940;12.840;2023-03-05T14:06:24;13.50;64.50
19050;DHT22;9657;45.940;12.840;2023-03-05T14:08:57;13.50;64.50
19050;DHT22;9657;45.940;12.840;2023-03-05T14:11:26;13.50;64.50
19050;DHT22;9657;45.940;12.840;2023-03-05T14:14:04;13.50;64.40
19050;DHT22;9657;45.940;12.840;2023-03-05T14:16:32;13.50;64.40
19050;DHT22;9657;45.940;12.840;2023-03-05T14:19:00;13.50;64.50
19050;DHT22;9657;45.940;12.840;2023-03-05T14:21:43;13.50;64.40
19050;DHT22;9657;45.940;12.840;2023-03-05T14:24:13;13.50;64.40
19050;DHT22;9657;45.940;12.840;2023-03-05T14:26:47;13.50;64.30
19050;DHT22;9657;45.940;12.840;2023-03-05T14:29:19;13.50;64.10
19050;DHT22;9657;45.940;12.840;2023-03-05T14:31:49;13.50;64.10
19050;DHT22;9657;45.940;12.840;2023-03-05T14:34:23;13.50;64.10
19050;DHT22;9657;45.940;12.840;2023-03-05T14:36:53;13.50;64.40
19050;DHT22;9657;45.940;12.840;2023-03-05T14:39:28;13.50;64.60
19050;DHT22;9657;45.940;12.840;2023-03-05T14:42:12;13.50;64.60
19050;DHT22;9657;45.940;12.840;2023-03-05T14:44:40;13.60;64.50
19050;DHT22;9657;45.940;12.840;2023-03-05T14:47:08;13.60;64.50
19050;DHT22;9657;45.940;12.840;2023-03-05T14:49:35;13.50;64.50
19050;DHT22;9657;45.940;12.840;2023-03-05T14:52:02;13.60;64.70
19050;DHT22;9657;45.940;12.840;2023-03-05T14:54:35;13.50;64.60
19050;DHT22;9657;45.940;12.840;2023-03-05T14:57:03;13.60;64.80
19050;DHT22;9657;45.940;12.840;2023-03-05T14:59:30;13.60;64.70
19050;DHT22;9657;45.940;12.840;2023-03-05T15:01:59;13.60;64.80
19050;DHT22;9657;45.940;12.840;2023-03-05T15:04:26;13.60;64.80
19050;DHT22;9657;45.940;12.840;2023-03-05T15:06:53;13.60;64.80
19050;DHT22;9657;45.940;12.840;2023-03-05T15:09:20;13.60;64.80
19050;DHT22;9657;45.940;12.840;2023-03-05T15:11:48;13.60;64.80
19050;DHT22;9657;45.940;12.840;2023-03-05T15:14:15;13.60;64.80
19050;DHT22;9657;45.940;12.840;2023-03-05T15:16:44;13.60;64.80
19050;DHT22;9657;45.940;12.840;2023-03-05T15:19:14;13.60;64.80
19050;DHT22;9657;45.940;12.840;2023-03-05T15:21:42;13.60;64.80
19050;DHT22;9657;45.940;12.840;2023-03-05T15:24:09;13.60;64.80
19050;DHT22;9657;45.940;12.840;2023-03-05T15:26:37;13.60;64.80
19050;DHT22;9657;45.940;12.840;2023-03-05T15:29:04;13.60;64.80
19050;DHT22;9657;45.940;12.840;2023-03-05T15:31:31;13.60;64.90
19050;DHT22;9657;45.940;12.840;2023-03-05T15:34:03;13.70;64.90
19050;DHT22;9657;45.940;12.840;2023-03-05T15:36:31;13.60;64.90
19050;DHT22;9657;45.940;12.840;2023-03-05T15:38:58;13.70;64.90
19050;DHT22;9657;45.940;12.840;2023-03-05T15:41:25;13.70;64.90
19050;DHT22;9657;45.940;12.840;2023-03-05T15:43:52;13.70;64.90
19050;DHT22;9657;45.940;12.840;2023-03-05T15:46:19;13.70;65.00
19050;DHT22;9657;45.940;12.840;2023-03-05T15:48:46;13.70;65.00
19050;DHT22;9657;45.940;12.840;2023-03-05T15:51:15;13.70;65.00
19050;DHT22;9657;45.940;12.840;2023-03-05T15:53:44;13.70;65.00
19050;DHT22;9657;45.940;12.840;2023-03-05T15:56:14;13.70;65.00
19050;DHT22;9657;45.940;12.840;2023-03-05T15:58:42;13.70;65.00